Bettles Field, AK (99726)

6:23 AM AKDT on September 23, 2014 (GMT -0800)
Bettles | Change Station
CLOSE
Current Station
Airport
Location: Bettles,
Elevation: 643 ft
Nearby Weather Stations
Active Advisory: Winter Weather Advisory

Elev 643 ft 66.91 °N, 151.53 °W | Updated 30 minutes ago

Overcast
Overcast
36 °F
Feels Like 29 °F
N
9
Wind Variable Wind from SSW

Today
High -- | Low -- °F
--% Chance of Precip.
Yesterday
High -- | Low -- °F
Precip. -- in
7:48 AM 7:59 PM
Waning Crescent, 0% visible
Pressure 29.71 in
Visibility 10.0 miles
Clouds Mostly Cloudy 5500 ft
Overcast 7000 ft
Windchill 29 °F
Dew Point 33 °F
Humidity 89%
Rainfall 0.08 in
Snow Depth 2 in , 1 in , 0 in
UV 0 out of 12
Pollen Not available.
Air Quality Not available.
Flu Activity Not available.
METAR PABT 231353Z 21008KT 10SM BKN055 OVC070 02/01 A2967 RMK AO2 SLP061 T00220006

More Conditions Fewer Conditions

Pressure 29.71 in
Visibility 10.0 miles
Clouds Mostly Cloudy 5500 ft
Overcast 7000 ft
Windchill 29 °F
Dew Point 33 °F
Humidity 89%
Rainfall 0.08 in
Snow Depth 2 in , 1 in , 0 in
UV 0 out of 12
Pollen Not available.
Air Quality Not available.
Flu Activity Not available.
METAR PABT 231353Z 21008KT 10SM BKN055 OVC070 02/01 A2967 RMK AO2 SLP061 T00220006

More Conditions Fewer Conditions

10-Day Weather Forecast

Almanac

Astronomy

Sep. 23, 2014 Rise Set
Actual Time 7:48 AM AKDT 7:59 PM AKDT
Civil Twilight 6:54 AM AKDT 8:53 PM AKDT
Nautical Twilight 5:46 AM AKDT 10:00 PM AKDT
Astronomical Twilight 4:24 AM AKDT 11:21 PM AKDT
Moon 7:23 AM AKDT 7:32 PM AKDT
Length of Visible Light 13h 59m
Length of Day
12h 11m
Tomorrow will be 7m 28s shorter.
Waning Crescent, 0% of the Moon is Illuminated
Today
Waning Crescent
Sep 24
New
Oct 1
First Quarter
Oct 8
Full
Oct 15
Last Quarter

Today's Extremes

State Highs State Lows

Community

WunderPhotos

Upload Photos

1,755,705 photos uploaded!

Nearby

Snow Depth

Station Depth Elevation
Pargon Creek 2 in 300 ft
Susitna Valley High 1 in 375 ft
Little Chena Ridge 0 in 2000 ft
Moraine 0 in 2100 ft
Atigun Pass 5 in 4800 ft

Earthquake Activity

City Distance Mag. Time & Date
No recent earthquake activity has been reported nearby.
Minimum magnitude displayed is 2.5.

Coastal Water Temperatures

Place Temperature
No Stations Reporting

Nearby Weather Stations